Data for 02/24/2009

Time Sea-Level Adjusted Pressure Absolute Pressure Temperature Relative Humidity Dew Point   
(mb) (inHg) (mb) (inHg) (C) (F) (%) (C) (F)
00:05 1012 29.88 841 24.83 8.6 47.5 36 -5.8 21.6
00:10 1012 29.88 841 24.83 8.7 47.6 36 -5.7 21.7
00:15 1012 29.88 841 24.83 8.5 47.3 35 -6 21.2
00:20 1012 29.88 841 24.83 8.5 47.3 36 -5.7 21.8
00:25 1012 29.88 841 24.83 7.6 45.7 43 -4.3 24.2
00:30 1012 29.88 841 24.83 6.3 43.4 46 -4.4 24.1
00:35 1011 29.85 841 24.83 5.9 42.7 48 -4.2 24.5
00:40 1011 29.85 841 24.83 5.7 42.3 49 -4.1 24.6
00:45 1011 29.85 841 24.83 5.7 42.2 52 -3.4 25.8
00:50 1011 29.85 840 24.81 5.6 42.1 51 -3.7 25.4
00:55 1011 29.85 840 24.81 5.7 42.2 51 -3.8 25.2
01:00 1011 29.85 840 24.81 5.7 42.3 51 -3.7 25.4
01:05 1011 29.85 840 24.81 5.8 42.4 50 -3.8 25.2
01:10 1011 29.85 840 24.81 5.5 41.8 53 -3.3 26.1
01:15 1011 29.85 840 24.81 5.2 41.4 53 -3.7 25.4
01:20 1011 29.85 840 24.81 5.3 41.5 51 -3.9 24.9
01:25 1011 29.85 840 24.81 5.4 41.8 51 -3.8 25.1
01:30 1011 29.85 840 24.81 5.5 41.9 51 -3.9 25
01:35 1011 29.85 840 24.81 5.4 41.8 51 -3.8 25.2
01:40 1011 29.85 840 24.81 5.4 41.7 51 -4 24.8
01:45 1011 29.85 840 24.81 5.5 42 49 -4.3 24.2
01:50 1011 29.85 840 24.81 6 42.8 47 -4.6 23.8
01:55 1011 29.85 840 24.81 6.4 43.5 44 -4.9 23.2
02:00 1010 29.83 840 24.81 7 44.5 43 -4.7 23.6
02:05 1010 29.83 839 24.78 6.9 44.5 44 -4.6 23.7
02:10 1010 29.83 839 24.78 7.2 45 42 -4.8 23.4
02:15 1010 29.83 839 24.78 7.3 45.1 43 -4.6 23.7
02:20 1010 29.83 839 24.78 7.7 45.9 41 -4.7 23.5
02:25 1010 29.83 839 24.78 7.6 45.7 42 -4.4 24.2
02:30 1010 29.83 839 24.78 7.6 45.6 43 -4.2 24.4
02:35 1010 29.83 839 24.78 7.6 45.6 44 -4 24.8
02:40 1010 29.83 839 24.78 7.7 45.8 44 -3.8 25.1
02:45 1010 29.83 839 24.78 7.6 45.7 45 -3.5 25.8
02:50 1010 29.83 839 24.78 7.8 46 44 -3.7 25.3
02:55 1010 29.83 839 24.78 8 46.4 43 -3.8 25.2
03:00 1010 29.83 839 24.78 8.2 46.8 43 -3.7 25.3
03:05 1010 29.83 839 24.78 8.4 47.1 43 -3.5 25.7
03:10 1010 29.83 839 24.78 8.3 47 43 -3.5 25.6
03:15 1010 29.83 839 24.78 8.3 47 44 -3.3 26
03:20 1010 29.83 839 24.78 8.2 46.7 45 -3.1 26.4
03:25 1010 29.83 839 24.78 7.9 46.2 46 -3 26.6
03:30 1010 29.83 839 24.78 7.8 46.1 47 -2.9 26.8
03:35 1010 29.83 839 24.78 7.8 46.1 47 -2.9 26.8
03:40 1010 29.83 839 24.78 7.7 45.8 47 -3 26.5
03:45 1010 29.83 839 24.78 7.9 46.1 47 -2.9 26.8
03:50 1010 29.83 839 24.78 7.9 46.2 47 -2.6 27.3
03:55 1010 29.83 839 24.78 7.6 45.7 48 -2.6 27.4
04:00 1010 29.83 839 24.78 7.5 45.4 49 -2.5 27.6
04:05 1010 29.83 839 24.78 7.3 45.2 50 -2.3 27.8
04:10 1010 29.83 839 24.78 7.2 44.9 51 -2.3 27.9
04:15 1010 29.83 839 24.78 7.3 45.1 51 -2.1 28.3
04:20 1009 29.8 839 24.78 7.3 45.1 50 -2.3 27.8
04:25 1010 29.83 839 24.78 7.6 45.6 50 -2.2 28.1
04:30 1010 29.83 839 24.78 7.6 45.6 51 -2 28.3
04:35 1009 29.8 839 24.78 7.5 45.6 50 -2.2 28
04:40 1010 29.83 839 24.78 7.6 45.6 51 -1.8 28.7
04:45 1010 29.83 839 24.78 7.4 45.3 53 -1.6 29.1
04:50 1010 29.83 839 24.78 7.2 44.9 53 -1.8 28.8
04:55 1010 29.83 839 24.78 7.2 44.9 52 -2.1 28.2
05:00 1010 29.83 839 24.78 7.2 45 51 -2.1 28.2
05:05 1010 29.83 839 24.78 7.3 45.1 50 -2.4 27.7
05:10 1010 29.83 839 24.78 7.3 45.1 50 -2.4 27.7
05:15 1009 29.8 839 24.78 7.2 45 50 -2.5 27.5
05:20 1010 29.83 839 24.78 7 44.6 51 -2.3 27.9
05:25 1009 29.8 839 24.78 6.9 44.4 52 -2.4 27.7
05:30 1009 29.8 839 24.78 6.8 44.3 50 -2.7 27.1
05:35 1009 29.8 839 24.78 7 44.5 50 -2.6 27.3
05:40 1009 29.8 839 24.78 7.1 44.7 50 -2.6 27.4
05:45 1009 29.8 839 24.78 7 44.6 51 -2.5 27.6
05:50 1009 29.8 838 24.75 6.9 44.5 51 -2.5 27.6
05:55 1009 29.8 839 24.78 6.9 44.4 52 -2.3 27.9
06:00 1009 29.8 839 24.78 6.8 44.2 53 -2.2 28
06:05 1009 29.8 838 24.75 6.9 44.3 53 -2.1 28.1
06:10 1009 29.8 838 24.75 6.8 44.3 52 -2.3 27.9
06:15 1009 29.8 838 24.75 6.8 44.3 52 -2.2 28
06:20 1009 29.8 838 24.75 6.8 44.2 52 -2.3 27.8
06:25 1009 29.8 838 24.75 6.8 44.3 52 -2.4 27.6
06:30 1009 29.8 839 24.78 6.8 44.3 52 -2.3 27.9
06:35 1010 29.83 839 24.78 6.7 44.1 52 -2.6 27.4
06:40 1010 29.83 839 24.78 6.8 44.2 51 -2.6 27.3
06:45 1010 29.83 839 24.78 6.8 44.3 52 -2.4 27.6
06:50 1009 29.8 839 24.78 6.8 44.2 52 -2.5 27.6
06:55 1009 29.8 839 24.78 6.7 44.1 52 -2.5 27.5
07:00 1009 29.8 839 24.78 6.7 44.1 51 -2.7 27.2
07:05 1010 29.83 839 24.78 6.8 44.3 51 -2.5 27.5
07:10 1010 29.83 839 24.78 6.3 43.3 60 -0.9 30.4
07:15 1010 29.83 839 24.78 5.4 41.8 64 -0.8 30.6
07:20 1010 29.83 839 24.78 4.6 40.3 69 -0.6 31
07:25 1010 29.83 839 24.78 4 39.3 72 -0.5 31.1
07:30 1010 29.83 839 24.78 3.6 38.5 75 -0.3 31.4
07:35 1010 29.83 840 24.81 3.3 37.9 77 -0.4 31.2
07:40 1011 29.85 840 24.81 3.1 37.5 79 -0.3 31.5
07:45 1011 29.85 840 24.81 2.7 36.8 82 -0.1 31.8
07:50 1011 29.85 840 24.81 2.4 36.3 83 -0.2 31.6
07:55 1011 29.85 840 24.81 2.2 36 85 -0.1 31.9
08:00 1011 29.85 840 24.81 2.2 36 85 -0 31.9
08:05 1011 29.85 840 24.81 2.4 36.3 85 0.1 32.2
08:10 1011 29.85 840 24.81 2.6 36.6 84 0.1 32.2
08:15 1011 29.85 841 24.83 2.7 36.9 83 0.1 32.1
08:20 1012 29.88 841 24.83 2.1 35.8 88 0.4 32.7
08:25 1012 29.88 841 24.83 1.8 35.3 87 -0.1 31.8
08:30 1012 29.88 841 24.83 1.8 35.3 87 -0 32
08:35 1012 29.88 841 24.83 1.8 35.3 89 0.2 32.3
08:40 1012 29.88 841 24.83 1.6 35 90 0.2 32.3
08:45 1012 29.88 841 24.83 1.5 34.7 91 0.2 32.4
08:50 1012 29.88 841 24.83 1.3 34.4 92 0.2 32.3
08:55 1012 29.88 841 24.83 1.1 33.9 94 0.2 32.4
09:00 1012 29.88 841 24.83 0.9 33.7 95 0.2 32.3
09:05 1012 29.88 841 24.83 1 33.8 94 0.1 32.3
09:10 1011 29.85 841 24.83 1.1 34.1 94 0.2 32.4
09:15 1011 29.85 841 24.83 1.3 34.3 94 0.4 32.7
09:20 1011 29.85 841 24.83 1.4 34.6 94 0.5 33
09:25 1011 29.85 841 24.83 1.7 35 93 0.7 33.2
09:30 1011 29.85 840 24.81 1.8 35.2 93 0.8 33.4
09:35 1011 29.85 840 24.81 2 35.6 93 1 33.8
09:40 1011 29.85 840 24.81 2.8 37 89 1.1 34
09:45 1011 29.85 840 24.81 3.1 37.5 87 1.1 33.9
09:50 1011 29.85 840 24.81 2.8 37 90 1.2 34.2
09:55 1011 29.85 840 24.81 3.2 37.8 88 1.4 34.5
10:00 1011 29.85 840 24.81 3.1 37.6 87 1.1 34
10:05 1011 29.85 840 24.81 3 37.4 88 1.2 34.2
10:10 1011 29.85 840 24.81 3.2 37.7 85 0.9 33.6
10:15 1011 29.85 840 24.81 3.2 37.7 88 1.4 34.6
10:20 1011 29.85 840 24.81 3.7 38.6 85 1.3 34.4
10:25 1011 29.85 840 24.81 4.5 40.2 81 1.5 34.7
10:30 1011 29.85 840 24.81 4.9 40.8 82 2 35.6
10:35 1011 29.85 840 24.81 4.6 40.3 82 1.8 35.2
10:40 1011 29.85 840 24.81 4.7 40.5 82 1.9 35.4
10:45 1011 29.85 840 24.81 5.5 41.9 75 1.5 34.6
10:50 1011 29.85 840 24.81 5.8 42.4 72 1.2 34.1
10:55 1011 29.85 840 24.81 6 42.8 72 1.3 34.4
11:00 1011 29.85 840 24.81 6.3 43.3 72 1.6 34.8
11:05 1011 29.85 840 24.81 6.1 42.9 73 1.5 34.7
11:10 1011 29.85 840 24.81 5.9 42.6 69 0.6 33.1
11:15 1010 29.83 840 24.81 6.5 43.6 67 0.8 33.5
11:20 1010 29.83 840 24.81 7.4 45.3 62 0.6 33.1
11:25 1010 29.83 840 24.81 8.3 47 56 0.1 32.2
11:30 1010 29.83 840 24.81 8.7 47.7 55 0.2 32.4
11:35 1010 29.83 839 24.78 9 48.2 50 -0.9 30.5
11:40 1010 29.83 839 24.78 9.3 48.7 45 -2.1 28.2
11:45 1010 29.83 839 24.78 9.2 48.5 43 -2.8 26.9
11:50 1010 29.83 839 24.78 8.8 47.9 43 -3 26.5
11:55 1010 29.83 839 24.78 8.5 47.3 44 -2.9 26.7
12:00 1010 29.83 839 24.78 8.3 46.9 43 -3.5 25.7
12:05 1010 29.83 839 24.78 8.7 47.6 44 -2.8 26.9
12:10 1010 29.83 839 24.78 9.3 48.8 43 -2.7 27.1
12:15 1010 29.83 839 24.78 9 48.1 35 -5.5 22.1
12:20 1010 29.83 839 24.78 8.6 47.4 35 -6 21.2
12:25 1010 29.83 839 24.78 8.3 46.9 37 -5.6 21.8
12:30 1010 29.83 839 24.78 8.1 46.5 38 -5.5 22.2
12:35 1010 29.83 840 24.81 8.5 47.2 39 -4.7 23.5
12:40 1010 29.83 839 24.78 8.5 47.2 39 -4.7 23.5
12:45 1010 29.83 840 24.81 8.2 46.8 47 -2.2 28
12:50 1010 29.83 840 24.81 7.7 45.8 49 -2.3 27.9
12:55 1010 29.83 840 24.81 7.7 45.9 47 -2.7 27.1
13:00 1010 29.83 839 24.78 7.9 46.2 45 -3.2 26.2
13:05 1010 29.83 839 24.78 8 46.5 42 -4.1 24.6
13:10 1010 29.83 839 24.78 8.9 48 38 -4.7 23.5
13:15 1010 29.83 839 24.78 9.4 49 36 -4.8 23.3
13:20 1010 29.83 839 24.78 9.4 48.9 39 -4 24.9
13:25 1010 29.83 839 24.78 9.2 48.5 37 -4.8 23.3
13:30 1010 29.83 839 24.78 9.1 48.3 36 -5 22.9
13:35 1010 29.83 839 24.78 9.4 48.9 34 -5.8 21.6
13:40 1010 29.83 839 24.78 9.3 48.8 34 -5.8 21.6
13:45 1010 29.83 839 24.78 9.4 49 34 -5.6 21.9
13:50 1010 29.83 839 24.78 9.3 48.8 34 -5.8 21.5
13:55 1010 29.83 839 24.78 9.4 49 33 -6.2 20.9
14:00 1010 29.83 839 24.78 9.5 49.2 34 -5.6 21.9
14:05 1010 29.83 839 24.78 9.8 49.6 34 -5.2 22.6
14:10 1010 29.83 839 24.78 9.9 49.8 32 -5.9 21.4
14:15 1010 29.83 839 24.78 9.9 49.7 32 -5.9 21.4
14:20 1010 29.83 839 24.78 9.8 49.6 32 -6.1 21.1
14:25 1010 29.83 839 24.78 9.6 49.3 29 -7.4 18.7
14:30 1010 29.83 839 24.78 9.8 49.6 29 -7.3 18.8
14:35 1010 29.83 839 24.78 10 49.9 30 -6.7 19.9
14:40 1010 29.83 839 24.78 10 50 29 -7.2 19
14:45 1010 29.83 839 24.78 10 50 28 -7.6 18.4
14:50 1010 29.83 839 24.78 10 50 28 -7.7 18.2
14:55 1010 29.83 839 24.78 9.9 49.8 33 -5.7 21.8
15:00 1010 29.83 839 24.78 9.3 48.7 36 -5 23
15:05 1010 29.83 839 24.78 9 48.1 35 -5.8 21.5
15:10 1010 29.83 839 24.78 9 48.1 34 -6.2 20.9
15:15 1010 29.83 839 24.78 9.2 48.6 33 -6.2 20.9
15:20 1010 29.83 839 24.78 9.6 49.3 32 -6.1 21
15:25 1010 29.83 839 24.78 9.9 49.9 27 -8.1 17.4
15:30 1010 29.83 839 24.78 10 49.9 26 -8.6 16.5
15:35 1010 29.83 839 24.78 10 49.9 26 -8.6 16.5
15:40 1010 29.83 839 24.78 9.9 49.9 25 -9 15.8
15:45 1010 29.83 839 24.78 9.9 49.7 26 -8.9 16
15:50 1010 29.83 840 24.81 10 49.9 26 -8.6 16.5
15:55 1011 29.85 840 24.81 9.9 49.9 27 -8.2 17.3
16:00 1011 29.85 840 24.81 9.6 49.3 26 -8.7 16.3
16:05 1011 29.85 840 24.81 9.4 48.9 29 -7.9 17.8
16:10 1011 29.85 840 24.81 9.2 48.5 29 -8 17.6
16:15 1011 29.85 841 24.83 8.5 47.3 49 -1.6 29.2
16:20 1012 29.88 841 24.83 6.1 42.9 58 -1.7 29
16:25 1012 29.88 841 24.83 5 41 61 -2 28.4
16:30 1012 29.88 841 24.83 4.9 40.8 60 -2.1 28.2
16:35 1012 29.88 841 24.83 5.4 41.7 58 -2.2 28
16:40 1012 29.88 841 24.83 6 42.8 55 -2.4 27.6
16:45 1012 29.88 841 24.83 6.4 43.4 53 -2.5 27.5
16:50 1012 29.88 841 24.83 6.5 43.8 52 -2.7 27.2
16:55 1012 29.88 841 24.83 6.6 43.9 51 -2.8 27
17:00 1012 29.88 841 24.83 6.1 43 53 -2.7 27.1
17:05 1012 29.88 841 24.83 5.9 42.7 53 -2.8 27
17:10 1012 29.88 841 24.83 5.9 42.6 53 -2.9 26.7
17:15 1012 29.88 841 24.83 5.9 42.7 50 -3.7 25.3
17:20 1012 29.88 841 24.83 6 42.8 48 -4.1 24.7
17:25 1012 29.88 841 24.83 6.1 42.9 48 -4.1 24.6
17:30 1012 29.88 841 24.83 6.1 43 47 -4.2 24.4
17:35 1012 29.88 841 24.83 6.3 43.4 47 -4.1 24.6
17:40 1012 29.88 841 24.83 6.4 43.4 48 -3.9 24.9
17:45 1012 29.88 842 24.86 6.6 43.8 45 -4.6 23.7
17:50 1012 29.88 842 24.86 6.4 43.5 42 -5.5 22.1
17:55 1012 29.88 842 24.86 6.3 43.3 42 -5.7 21.8
18:00 1012 29.88 842 24.86 6.2 43.2 42 -5.6 21.9
18:05 1012 29.88 842 24.86 6.2 43.1 44 -5.3 22.4
18:10 1013 29.91 842 24.86 6 42.8 43 -5.5 22.1
18:15 1013 29.91 842 24.86 5.9 42.6 44 -5.5 22
18:20 1013 29.91 842 24.86 5.9 42.5 44 -5.6 22
18:25 1013 29.91 842 24.86 5.8 42.4 45 -5.3 22.4
18:30 1013 29.91 842 24.86 5.5 42 46 -5.1 22.8
18:35 1013 29.91 842 24.86 5.3 41.5 47 -5 23
18:40 1013 29.91 842 24.86 5.1 41.1 48 -5 23
18:45 1013 29.91 842 24.86 4.9 40.8 50 -4.7 23.6
18:50 1013 29.91 842 24.86 4.6 40.4 50 -4.9 23.2
18:55 1013 29.91 842 24.86 4.5 40.1 49 -5.2 22.6
19:00 1013 29.91 842 24.86 4.6 40.2 50 -5.1 22.8
19:05 1013 29.91 842 24.86 4.5 40.1 49 -5.2 22.6
19:10 1013 29.91 842 24.86 4.4 40 50 -5.1 22.8
19:15 1013 29.91 842 24.86 4.3 39.8 50 -5.2 22.6
19:20 1013 29.91 843 24.89 4.4 39.9 48 -5.6 21.9
19:25 1013 29.91 843 24.89 4.5 40.1 48 -5.5 22.2
19:30 1014 29.94 843 24.89 4.3 39.7 49 -5.4 22.2
19:35 1014 29.94 843 24.89 4.2 39.6 48 -5.7 21.8
19:40 1014 29.94 843 24.89 4.2 39.5 48 -5.8 21.5
19:45 1014 29.94 843 24.89 4.1 39.5 48 -5.9 21.4
19:50 1014 29.94 843 24.89 4.1 39.4 48 -6 21.2
19:55 1014 29.94 843 24.89 4.2 39.5 47 -6.1 20.9
20:00 1014 29.94 843 24.89 4.1 39.5 48 -5.9 21.3
20:05 1014 29.94 843 24.89 3.9 39.1 49 -5.8 21.5
20:10 1014 29.94 843 24.89 3.9 39 49 -6 21.2
20:15 1014 29.94 843 24.89 3.9 38.9 48 -6.1 21
20:20 1014 29.94 843 24.89 3.9 39.1 48 -6 21.2
20:25 1014 29.94 843 24.89 4 39.1 48 -6.1 21
20:30 1014 29.94 843 24.89 4 39.2 48 -6 21.1
20:35 1014 29.94 843 24.89 4 39.1 48 -6.1 21.1
20:40 1014 29.94 843 24.89 3.9 39 48 -6.2 20.9
20:45 1014 29.94 843 24.89 3.8 38.9 46 -6.6 20.1
20:50 1014 29.94 843 24.89 3.9 39.1 46 -6.7 19.9
20:55 1014 29.94 843 24.89 4.1 39.4 45 -6.9 19.7
21:00 1014 29.94 843 24.89 4.2 39.6 43 -7.1 19.1
21:05 1014 29.94 843 24.89 4.1 39.4 45 -6.6 20.1
21:10 1014 29.94 843 24.89 3.7 38.7 46 -6.8 19.8
21:15 1014 29.94 843 24.89 3.6 38.5 47 -6.8 19.8
21:20 1014 29.94 843 24.89 3.5 38.3 47 -6.8 19.8
21:25 1014 29.94 843 24.89 3.4 38 48 -6.6 20
21:30 1014 29.94 843 24.89 3.2 37.8 47 -6.9 19.6
21:35 1014 29.94 843 24.89 3.3 38 47 -6.8 19.7
21:40 1014 29.94 843 24.89 3.4 38.1 47 -7 19.4
21:45 1014 29.94 843 24.89 3.5 38.3 46 -7.1 19.3
21:50 1014 29.94 843 24.89 3.4 38.2 46 -7 19.3
21:55 1014 29.94 843 24.89 3.5 38.2 46 -7.1 19.2
22:00 1014 29.94 843 24.89 3.4 38.1 47 -6.9 19.7
22:05 1014 29.94 843 24.89 3.1 37.6 48 -6.9 19.5
22:10 1014 29.94 843 24.89 3 37.5 45 -7.8 17.9
22:15 1014 29.94 843 24.89 3.3 38 45 -7.6 18.3
22:20 1014 29.94 843 24.89 3.4 38 44 -7.7 18.1
22:25 1014 29.94 843 24.89 3.4 38.1 43 -7.9 17.7
22:30 1014 29.94 843 24.89 3.5 38.3 43 -8 17.7
22:35 1014 29.94 843 24.89 3.6 38.5 41 -8.3 17
22:40 1014 29.94 843 24.89 3.9 39 40 -8.6 16.5
22:45 1014 29.94 843 24.89 4.1 39.3 38 -9.1 15.6
22:50 1014 29.94 843 24.89 4.3 39.7 37 -9.2 15.4
22:55 1014 29.94 843 24.89 4.2 39.6 37 -9.3 15.2
23:00 1014 29.94 843 24.89 4.2 39.6 37 -9.1 15.6
23:05 1014 29.94 843 24.89 3.9 39.1 38 -9 15.8
23:10 1014 29.94 843 24.89 3.6 38.5 39 -9.1 15.5
23:15 1014 29.94 843 24.89 3.5 38.2 38 -9.4 15.1
23:20 1014 29.94 843 24.89 3.6 38.4 38 -9.3 15.3
23:25 1014 29.94 843 24.89 3.4 38.1 39 -9.4 15
23:30 1014 29.94 843 24.89 3.4 38.2 39 -9.3 15.2
23:35 1014 29.94 843 24.89 3.3 37.9 40 -9.2 15.5
23:40 1014 29.94 843 24.89 3.1 37.5 40 -9.2 15.5
23:45 1014 29.94 843 24.89 3.2 37.8 39 -9.4 15.1
23:50 1014 29.94 843 24.89 3.3 38 38 -9.6 14.8
23:55 1014 29.94 843 24.89 3.6 38.6 35 -10.5 13
24:00 1014 29.94 843 24.89 4.2 39.5 33 -10.6 12.9